Time;durP1;ratioP1;P1;durP2;ratioP2;P2;SDS_P1;SDS_P2;PMS_P1;PMS_P2;Temp;Humidity;BMP_temperature;BMP_pressure;BME280_temperature;BME280_humidity;BME280_pressure;Samples;Min_cycle;Max_cycle;Signal;HPM_P1;HPM_P2
2022/01/20 00:02:17;;;;;;;;;;;7.10;99.90;;;;;;5031727;28;19913;-55
2022/01/20 00:05:05;;;;;;;;;;;7.00;99.90;;;;;;5031137;28;19910;-54
2022/01/20 00:07:34;;;;;;;;;;;7.00;99.90;;;;;;5031195;28;19913;-55
2022/01/20 00:28:26;;;;;;;;;;;6.90;99.90;;;;;;4995014;28;19918;-56
2022/01/20 00:31:03;;;;;;;;;;;6.90;99.90;;;;;;4993248;28;19929;-57
2022/01/20 00:33:42;;;;;;;;;;;6.90;99.90;;;;;;5010777;28;20012;-56
2022/01/20 00:38:34;;;;;;;;;;;6.90;99.90;;;;;;4996197;28;19932;-56
2022/01/20 00:41:00;;;;;;;;;;;6.90;99.90;;;;;;4997727;28;19914;-56
2022/01/20 00:43:26;;;;;;;;;;;6.90;99.90;;;;;;5007152;28;20382;-56
2022/01/20 00:45:51;;;;;;;;;;;6.90;99.90;;;;;;4993449;28;19946;-54
2022/01/20 00:48:17;;;;;;;;;;;6.90;99.90;;;;;;4998128;28;20305;-57
2022/01/20 00:50:43;;;;;;;;;;;6.90;99.90;;;;;;4996350;28;19937;-57
2022/01/20 00:53:09;;;;;;;;;;;6.80;99.90;;;;;;4995673;28;20370;-56
2022/01/20 00:55:34;;;;;;;;;;;6.90;99.90;;;;;;4991109;28;20005;-56
2022/01/20 00:58:00;;;;;;;;;;;6.80;99.90;;;;;;4991274;28;19969;-55
2022/01/20 01:00:25;;;;;;;;;;;6.80;99.90;;;;;;4999411;28;19910;-51
2022/01/20 01:02:51;;;;;;;;;;;6.70;99.90;;;;;;4994914;28;19921;-57
2022/01/20 01:05:16;;;;;;;;;;;6.70;99.90;;;;;;4995709;28;20007;-56
2022/01/20 01:10:09;;;;;;;;;;;6.70;99.90;;;;;;4991996;28;19914;-56
2022/01/20 01:12:44;;;;;;;;;;;6.60;99.90;;;;;;4996791;28;19914;-57
2022/01/20 01:15:17;;;;;;;;;;;6.60;99.90;;;;;;4996665;28;19921;-57
2022/01/20 01:20:29;;;;;;;;;;;6.60;99.90;;;;;;4995468;28;20338;-56
2022/01/20 01:22:55;;;;;;;;;;;6.60;99.90;;;;;;4995240;28;19931;-57
2022/01/20 01:25:20;;;;;;;;;;;6.50;99.90;;;;;;4994702;28;19997;-54
2022/01/20 01:27:46;;;;;;;;;;;6.50;99.90;;;;;;4993904;28;20068;-57
2022/01/20 01:30:40;;;;;;;;;;;6.50;99.90;;;;;;4997180;28;20444;-57
2022/01/20 01:33:07;;;;;;;;;;;6.40;99.90;;;;;;4998065;28;19913;-57
2022/01/20 01:35:34;;;;;;;;;;;6.40;99.90;;;;;;4995044;28;20435;-56
2022/01/20 01:40:32;;;;;;;;;;;6.30;99.90;;;;;;4994780;28;19913;-50
2022/01/20 01:43:00;;;;;;;;;;;6.30;99.90;;;;;;4975730;28;19936;-53
2022/01/20 01:45:26;;;;;;;;;;;6.30;99.90;;;;;;4998581;28;19914;-55
2022/01/20 01:47:52;;;;;;;;;;;6.20;99.90;;;;;;4994554;28;19921;-55
2022/01/20 01:50:17;;;;;;;;;;;6.20;99.90;;;;;;4994967;28;19918;-56
2022/01/20 01:52:43;;;;;;;;;;;6.20;99.90;;;;;;4994514;28;19913;-56
2022/01/20 01:55:09;;;;;;;;;;;6.20;99.90;;;;;;4991596;28;20402;-55
2022/01/20 01:57:35;;;;;;;;;;;6.10;99.90;;;;;;4995503;28;19921;-53
2022/01/20 02:00:00;;;;;;;;;;;6.10;99.90;;;;;;4995382;28;19910;-53
2022/01/20 02:02:27;;;;;;;;;;;6.00;99.90;;;;;;4994669;28;19918;-56
2022/01/20 02:04:52;;;;;;;;;;;6.00;99.90;;;;;;4994847;28;20398;-51
2022/01/20 02:08:07;;;;;;;;;;;6.00;99.90;;;;;;4992163;28;19969;-56
2022/01/20 02:21:00;;;;;;;;;;;6.00;99.90;;;;;;4994669;28;20012;-55
2022/01/20 02:23:26;;;;;;;;;;;5.90;99.90;;;;;;4994289;28;19921;-56
2022/01/20 02:25:52;;;;;;;;;;;5.90;99.90;;;;;;4994198;28;19929;-57
2022/01/20 02:28:18;;;;;;;;;;;5.80;99.90;;;;;;4992121;28;19911;-56
2022/01/20 02:30:43;;;;;;;;;;;5.80;99.90;;;;;;4994151;28;19945;-55
2022/01/20 02:33:15;;;;;;;;;;;5.80;99.90;;;;;;4995415;28;19960;-55
2022/01/20 02:35:44;;;;;;;;;;;5.80;99.90;;;;;;4993385;28;19910;-55
2022/01/20 02:38:16;;;;;;;;;;;5.80;99.90;;;;;;4993570;28;20400;-53
2022/01/20 02:45:52;;;;;;;;;;;5.60;99.90;;;;;;4991266;28;19925;-55
2022/01/20 02:48:18;;;;;;;;;;;5.60;99.90;;;;;;4996152;28;19918;-57
2022/01/20 02:50:43;;;;;;;;;;;5.60;99.90;;;;;;4993494;28;20279;-55
2022/01/20 02:53:09;;;;;;;;;;;5.60;99.90;;;;;;4993191;28;19913;-56
2022/01/20 02:55:35;;;;;;;;;;;5.60;99.90;;;;;;4993108;28;19910;-56
2022/01/20 02:58:00;;;;;;;;;;;5.60;99.90;;;;;;4989145;28;19929;-56
2022/01/20 03:00:26;;;;;;;;;;;5.60;99.90;;;;;;4997248;28;20373;-57
2022/01/20 03:02:51;;;;;;;;;;;5.60;99.90;;;;;;4993052;28;19910;-57
2022/01/20 03:05:17;;;;;;;;;;;5.60;99.90;;;;;;4993210;28;19965;-55
2022/01/20 03:07:43;;;;;;;;;;;5.50;99.90;;;;;;4993001;28;20302;-54
2022/01/20 03:10:09;;;;;;;;;;;5.50;99.90;;;;;;4990227;28;19918;-50
2022/01/20 03:12:34;;;;;;;;;;;5.50;99.90;;;;;;4993123;28;20453;-55
2022/01/20 03:15:00;;;;;;;;;;;5.40;99.90;;;;;;4994058;28;20350;-56
2022/01/20 03:17:26;;;;;;;;;;;5.40;99.90;;;;;;4992441;28;19963;-56
2022/01/20 03:19:51;;;;;;;;;;;5.40;99.90;;;;;;4993345;28;20401;-56
2022/01/20 03:22:17;;;;;;;;;;;5.30;99.90;;;;;;4991262;28;19918;-55
2022/01/20 03:24:42;;;;;;;;;;;5.40;99.90;;;;;;4992997;28;20389;-57
2022/01/20 03:27:08;;;;;;;;;;;5.30;99.90;;;;;;4994098;28;19909;-54
2022/01/20 03:29:34;;;;;;;;;;;5.30;99.90;;;;;;4998110;28;19913;-51
2022/01/20 03:32:00;;;;;;;;;;;5.30;99.90;;;;;;5000752;28;19921;-57
2022/01/20 03:34:25;;;;;;;;;;;5.30;99.90;;;;;;4992021;28;19913;-56
2022/01/20 03:36:52;;;;;;;;;;;5.20;99.90;;;;;;4990502;28;19914;-57
2022/01/20 03:39:18;;;;;;;;;;;5.20;99.90;;;;;;4995304;28;19918;-52
2022/01/20 03:41:43;;;;;;;;;;;5.20;99.90;;;;;;4992630;28;19961;-56
2022/01/20 03:44:09;;;;;;;;;;;5.20;99.90;;;;;;4993854;28;19918;-56
2022/01/20 03:46:34;;;;;;;;;;;5.20;99.90;;;;;;4993053;28;19989;-55
2022/01/20 03:49:09;;;;;;;;;;;5.10;99.90;;;;;;4990630;28;19913;-50
2022/01/20 03:51:35;;;;;;;;;;;5.10;99.90;;;;;;5004116;28;19910;-56
2022/01/20 03:54:00;;;;;;;;;;;5.10;99.90;;;;;;4993371;28;21046;-56
2022/01/20 03:56:26;;;;;;;;;;;5.10;99.90;;;;;;4992910;28;20585;-56
2022/01/20 03:58:52;;;;;;;;;;;5.10;99.90;;;;;;4993004;28;20385;-55
2022/01/20 04:01:18;;;;;;;;;;;5.10;99.90;;;;;;4990645;28;19922;-55
2022/01/20 04:03:43;;;;;;;;;;;5.00;99.90;;;;;;4992172;28;19910;-55
2022/01/20 04:06:09;;;;;;;;;;;5.00;99.90;;;;;;4993686;28;20010;-55
2022/01/20 04:08:37;;;;;;;;;;;5.00;99.90;;;;;;4992326;28;19921;-54
2022/01/20 04:11:05;;;;;;;;;;;5.00;99.90;;;;;;4992597;28;19917;-57
2022/01/20 04:13:32;;;;;;;;;;;5.00;99.90;;;;;;4994348;28;20389;-56
2022/01/20 04:16:12;;;;;;;;;;;5.00;99.90;;;;;;4988823;28;19945;-56
2022/01/20 04:18:38;;;;;;;;;;;5.00;99.90;;;;;;5002791;28;19921;-57
2022/01/20 04:21:04;;;;;;;;;;;5.00;99.90;;;;;;4993513;28;19918;-56
2022/01/20 04:23:30;;;;;;;;;;;4.90;99.90;;;;;;4992381;28;19937;-55
2022/01/20 04:25:56;;;;;;;;;;;4.90;99.90;;;;;;4992324;28;20407;-54
2022/01/20 04:28:22;;;;;;;;;;;4.90;99.90;;;;;;4991188;28;19925;-54
2022/01/20 04:30:48;;;;;;;;;;;4.80;99.90;;;;;;4992262;28;19914;-57
2022/01/20 04:33:13;;;;;;;;;;;4.80;99.90;;;;;;5004593;28;19917;-54
2022/01/20 04:35:39;;;;;;;;;;;4.80;99.90;;;;;;5001228;28;19909;-56
2022/01/20 04:38:05;;;;;;;;;;;4.80;99.90;;;;;;5001476;28;19925;-55
2022/01/20 04:40:37;;;;;;;;;;;4.80;99.90;;;;;;4996111;28;19909;-52
2022/01/20 04:43:03;;;;;;;;;;;4.80;99.90;;;;;;4977042;28;19920;-56
2022/01/20 04:45:33;;;;;;;;;;;4.80;99.90;;;;;;4999045;28;20322;-52
2022/01/20 04:58:37;;;;;;;;;;;4.70;99.90;;;;;;4996041;28;19928;-56
2022/01/20 05:01:03;;;;;;;;;;;4.70;99.90;;;;;;4991295;28;19910;-57
2022/01/20 05:03:29;;;;;;;;;;;4.60;99.90;;;;;;4998813;28;19959;-53
2022/01/20 05:05:55;;;;;;;;;;;4.60;99.90;;;;;;4995370;28;20380;-55
2022/01/20 05:08:23;;;;;;;;;;;4.60;99.90;;;;;;4995690;28;19960;-56
2022/01/20 05:10:49;;;;;;;;;;;4.60;99.90;;;;;;4995466;28;19910;-56
2022/01/20 05:13:31;;;;;;;;;;;4.60;99.90;;;;;;4992954;28;19950;-57
2022/01/20 05:15:56;;;;;;;;;;;4.60;99.90;;;;;;4992015;28;19933;-55
2022/01/20 05:18:22;;;;;;;;;;;4.60;99.90;;;;;;4998319;28;20314;-51
2022/01/20 05:20:47;;;;;;;;;;;4.60;99.90;;;;;;4995077;28;19924;-57
2022/01/20 05:23:13;;;;;;;;;;;4.60;99.90;;;;;;4995123;28;19976;-56
2022/01/20 05:25:39;;;;;;;;;;;4.60;99.90;;;;;;4995222;28;19913;-54
2022/01/20 05:28:04;;;;;;;;;;;4.60;99.90;;;;;;4991341;28;19914;-56
2022/01/20 05:30:30;;;;;;;;;;;4.60;99.90;;;;;;4997998;28;19945;-54
2022/01/20 05:32:55;;;;;;;;;;;4.60;99.90;;;;;;4995421;28;19914;-55
2022/01/20 05:35:21;;;;;;;;;;;4.50;99.90;;;;;;4996202;28;20351;-56
2022/01/20 05:37:46;;;;;;;;;;;4.60;99.90;;;;;;4994696;28;20337;-55
2022/01/20 05:40:12;;;;;;;;;;;4.50;99.90;;;;;;4992210;28;19965;-55
2022/01/20 05:42:39;;;;;;;;;;;4.50;99.90;;;;;;4995759;28;19992;-58
2022/01/20 05:45:05;;;;;;;;;;;4.50;99.90;;;;;;4996000;28;19917;-54
2022/01/20 05:47:32;;;;;;;;;;;4.50;99.90;;;;;;4994925;28;19920;-53
2022/01/20 05:49:58;;;;;;;;;;;4.50;99.90;;;;;;4994595;28;19914;-56
2022/01/20 05:52:23;;;;;;;;;;;4.50;99.90;;;;;;4993319;28;19920;-57
2022/01/20 05:54:49;;;;;;;;;;;4.50;99.90;;;;;;4993740;28;19913;-57
2022/01/20 05:57:15;;;;;;;;;;;4.50;99.90;;;;;;4996936;28;19910;-56
2022/01/20 05:59:40;;;;;;;;;;;4.50;99.90;;;;;;4993988;28;19925;-57
2022/01/20 06:02:26;;;;;;;;;;;4.50;99.90;;;;;;4994767;28;19913;-56
2022/01/20 06:04:52;;;;;;;;;;;4.50;99.90;;;;;;4994627;28;19920;-56
2022/01/20 06:07:19;;;;;;;;;;;4.50;99.90;;;;;;4991812;28;19922;-55
2022/01/20 06:09:45;;;;;;;;;;;4.50;99.90;;;;;;4994189;28;19910;-56
2022/01/20 06:12:11;;;;;;;;;;;4.50;99.90;;;;;;4995660;28;19917;-56
2022/01/20 06:14:36;;;;;;;;;;;4.40;99.90;;;;;;4993887;28;19925;-53
2022/01/20 06:17:02;;;;;;;;;;;4.40;99.90;;;;;;4993916;28;19914;-56
2022/01/20 06:19:27;;;;;;;;;;;4.40;99.90;;;;;;4992282;28;19925;-56
2022/01/20 06:21:53;;;;;;;;;;;4.40;99.90;;;;;;5007005;28;19918;-56
2022/01/20 06:24:18;;;;;;;;;;;4.40;99.90;;;;;;4996610;28;19910;-56
2022/01/20 06:26:44;;;;;;;;;;;4.40;99.90;;;;;;4993720;28;19936;-56
2022/01/20 06:29:09;;;;;;;;;;;4.30;99.90;;;;;;4993632;28;19913;-56
2022/01/20 06:31:35;;;;;;;;;;;4.30;99.90;;;;;;4994458;28;20003;-54
2022/01/20 06:34:00;;;;;;;;;;;4.30;99.90;;;;;;4989784;28;20348;-56
2022/01/20 06:36:26;;;;;;;;;;;4.30;99.90;;;;;;4997070;28;19914;-55
2022/01/20 06:38:52;;;;;;;;;;;4.30;99.90;;;;;;4993660;28;20017;-56
2022/01/20 06:41:17;;;;;;;;;;;4.30;99.90;;;;;;4995766;28;19938;-56
2022/01/20 06:43:43;;;;;;;;;;;4.30;99.90;;;;;;4993225;28;19913;-56
2022/01/20 06:46:08;;;;;;;;;;;4.30;99.90;;;;;;4990227;28;19918;-57
2022/01/20 06:48:34;;;;;;;;;;;4.20;99.90;;;;;;4995267;28;19914;-57
2022/01/20 06:50:59;;;;;;;;;;;4.20;99.90;;;;;;4994701;28;19953;-56
2022/01/20 06:53:25;;;;;;;;;;;4.20;99.90;;;;;;4993642;28;20385;-57
2022/01/20 06:55:50;;;;;;;;;;;4.20;99.90;;;;;;4993219;28;19918;-54
2022/01/20 06:58:16;;;;;;;;;;;4.30;99.90;;;;;;4990892;28;20405;-55
2022/01/20 07:00:41;;;;;;;;;;;4.30;99.90;;;;;;4993327;28;19914;-55
2022/01/20 07:03:07;;;;;;;;;;;4.30;99.90;;;;;;4994018;28;19921;-52
2022/01/20 07:05:33;;;;;;;;;;;4.30;99.90;;;;;;4993111;28;19921;-53
2022/01/20 07:08:01;;;;;;;;;;;4.30;99.90;;;;;;4981524;28;20004;-54
2022/01/20 07:10:26;;;;;;;;;;;4.30;99.90;;;;;;4988281;28;19914;-54
2022/01/20 07:12:52;;;;;;;;;;;4.30;99.90;;;;;;4994198;28;19925;-67
2022/01/20 07:15:18;;;;;;;;;;;4.40;99.90;;;;;;4991874;28;20191;-66
2022/01/20 07:17:44;;;;;;;;;;;4.40;99.90;;;;;;4988173;28;19922;-67
2022/01/20 07:20:10;;;;;;;;;;;4.30;99.90;;;;;;4988961;28;19914;-66
2022/01/20 07:22:35;;;;;;;;;;;4.30;99.90;;;;;;4988963;28;19914;-65
2022/01/20 07:25:01;;;;;;;;;;;4.30;99.90;;;;;;4989557;28;19920;-64
2022/01/20 07:27:28;;;;;;;;;;;4.20;99.90;;;;;;4991250;28;20392;-63
2022/01/20 07:29:53;;;;;;;;;;;4.20;99.90;;;;;;4989053;28;19918;-66
2022/01/20 07:32:19;;;;;;;;;;;4.30;99.90;;;;;;4990587;28;19918;-68
2022/01/20 07:34:44;;;;;;;;;;;4.20;99.90;;;;;;4988698;28;19914;-68
2022/01/20 07:37:10;;;;;;;;;;;4.20;99.90;;;;;;4988542;28;19921;-67
2022/01/20 07:39:35;;;;;;;;;;;4.20;99.90;;;;;;4989811;28;20349;-65
2022/01/20 07:42:01;;;;;;;;;;;4.20;99.90;;;;;;4980699;28;20421;-65
2022/01/20 07:44:26;;;;;;;;;;;4.30;99.90;;;;;;4996563;28;20306;-66
2022/01/20 07:46:53;;;;;;;;;;;4.30;99.90;;;;;;4979444;28;19960;-65
2022/01/20 07:49:18;;;;;;;;;;;4.30;99.90;;;;;;4979706;28;19949;-64
2022/01/20 07:51:44;;;;;;;;;;;4.40;99.90;;;;;;4980721;28;19976;-65
2022/01/20 07:54:10;;;;;;;;;;;4.50;99.90;;;;;;4981029;28;19910;-63
2022/01/20 07:56:35;;;;;;;;;;;4.50;99.90;;;;;;4981533;28;19968;-67
2022/01/20 07:59:01;;;;;;;;;;;4.50;99.90;;;;;;4994565;28;20333;-66
2022/01/20 08:01:27;;;;;;;;;;;4.50;99.90;;;;;;4979425;28;20009;-65
2022/01/20 08:03:52;;;;;;;;;;;4.50;99.90;;;;;;4981180;28;20241;-66
2022/01/20 08:06:18;;;;;;;;;;;4.50;99.90;;;;;;4979842;28;19922;-66
2022/01/20 08:08:46;;;;;;;;;;;4.60;99.90;;;;;;4980683;28;19921;-63
2022/01/20 08:11:11;;;;;;;;;;;4.60;99.90;;;;;;4979724;28;19918;-66
2022/01/20 08:13:37;;;;;;;;;;;4.60;99.90;;;;;;4981939;28;19915;-64
2022/01/20 08:16:02;;;;;;;;;;;4.70;99.90;;;;;;4989768;28;19936;-66
2022/01/20 08:18:28;;;;;;;;;;;4.70;99.90;;;;;;4988451;28;20358;-66
2022/01/20 08:20:53;;;;;;;;;;;4.80;99.90;;;;;;4985364;28;19964;-65
2022/01/20 08:23:19;;;;;;;;;;;4.80;99.90;;;;;;4984613;28;19968;-66
2022/01/20 08:25:45;;;;;;;;;;;4.90;99.90;;;;;;4982119;28;20385;-65
2022/01/20 08:28:12;;;;;;;;;;;5.00;99.90;;;;;;4983556;28;20004;-66
2022/01/20 08:30:38;;;;;;;;;;;5.00;99.90;;;;;;4983702;28;20571;-66
2022/01/20 08:33:03;;;;;;;;;;;5.00;99.90;;;;;;4985270;28;19976;-66
2022/01/20 08:35:32;;;;;;;;;;;5.00;99.90;;;;;;4986885;28;20382;-66
2022/01/20 08:37:58;;;;;;;;;;;5.10;99.90;;;;;;4984570;28;19918;-65
2022/01/20 08:40:24;;;;;;;;;;;5.10;99.90;;;;;;4982303;28;19922;-65
2022/01/20 08:42:50;;;;;;;;;;;5.10;99.90;;;;;;4983813;28;19937;-67
2022/01/20 08:45:17;;;;;;;;;;;5.10;99.90;;;;;;4982611;28;19961;-65
2022/01/20 08:47:43;;;;;;;;;;;5.20;99.90;;;;;;4984571;28;20271;-65
2022/01/20 08:50:10;;;;;;;;;;;5.20;99.90;;;;;;4985036;28;19972;-64
2022/01/20 08:52:35;;;;;;;;;;;5.10;99.90;;;;;;4981078;28;19937;-66
2022/01/20 08:55:01;;;;;;;;;;;5.10;99.90;;;;;;4985776;28;19918;-64
2022/01/20 08:57:27;;;;;;;;;;;5.10;99.90;;;;;;4983947;28;20306;-64
2022/01/20 08:59:53;;;;;;;;;;;5.20;99.90;;;;;;4982885;28;20466;-64
2022/01/20 09:02:19;;;;;;;;;;;5.20;99.90;;;;;;4983546;28;19925;-63
2022/01/20 09:04:44;;;;;;;;;;;5.30;99.90;;;;;;4981762;28;19929;-67
2022/01/20 09:07:10;;;;;;;;;;;5.20;99.90;;;;;;4988515;28;19918;-66
2022/01/20 09:09:41;;;;;;;;;;;5.30;99.90;;;;;;5000388;28;20012;-66
2022/01/20 09:17:19;;;;;;;;;;;5.40;99.90;;;;;;4983435;28;19929;-63
2022/01/20 09:19:45;;;;;;;;;;;5.50;99.90;;;;;;4981565;28;19926;-64
2022/01/20 09:22:11;;;;;;;;;;;5.50;99.90;;;;;;4982351;28;20206;-64
2022/01/20 09:24:37;;;;;;;;;;;5.50;99.90;;;;;;4981837;28;19918;-64
2022/01/20 09:27:03;;;;;;;;;;;5.50;99.90;;;;;;4982193;28;19914;-66
2022/01/20 09:29:29;;;;;;;;;;;5.50;99.90;;;;;;4984427;28;20005;-65
2022/01/20 09:31:54;;;;;;;;;;;5.50;99.90;;;;;;4981913;28;20352;-66
2022/01/20 09:34:20;;;;;;;;;;;5.50;99.90;;;;;;4986139;28;19925;-67
2022/01/20 09:36:46;;;;;;;;;;;5.50;99.90;;;;;;4986161;28;20434;-66
2022/01/20 09:39:12;;;;;;;;;;;5.60;99.90;;;;;;4987591;28;19957;-64
2022/01/20 09:41:37;;;;;;;;;;;5.70;99.90;;;;;;4984836;28;19914;-63
2022/01/20 09:44:06;;;;;;;;;;;5.70;99.90;;;;;;4984664;28;19936;-63
2022/01/20 09:46:32;;;;;;;;;;;5.80;99.90;;;;;;4980171;28;19973;-66
2022/01/20 09:48:58;;;;;;;;;;;5.80;99.90;;;;;;4984703;28;20358;-64
2022/01/20 09:51:24;;;;;;;;;;;5.80;99.90;;;;;;4982661;28;19968;-65
2022/01/20 09:53:50;;;;;;;;;;;5.90;99.90;;;;;;5000873;28;20378;-64
2022/01/20 09:56:16;;;;;;;;;;;5.90;99.90;;;;;;4983117;28;19914;-65
2022/01/20 09:58:43;;;;;;;;;;;6.00;99.90;;;;;;4981239;28;19934;-64
2022/01/20 10:01:09;;;;;;;;;;;6.00;99.90;;;;;;4987698;28;19929;-65
2022/01/20 10:03:36;;;;;;;;;;;6.00;99.90;;;;;;4982645;28;19918;-63
2022/01/20 10:06:01;;;;;;;;;;;6.00;99.90;;;;;;4981072;28;19918;-65
2022/01/20 10:08:28;;;;;;;;;;;5.90;99.90;;;;;;4983626;28;19918;-65
2022/01/20 10:10:54;;;;;;;;;;;5.90;99.90;;;;;;4980608;28;19913;-64
2022/01/20 10:13:21;;;;;;;;;;;5.80;99.90;;;;;;4982297;28;19922;-64
2022/01/20 10:15:54;;;;;;;;;;;5.90;99.90;;;;;;4982475;28;19961;-65
2022/01/20 10:18:19;;;;;;;;;;;5.90;99.90;;;;;;4981174;28;19930;-65
2022/01/20 10:20:53;;;;;;;;;;;6.00;99.90;;;;;;4987265;28;19940;-66
2022/01/20 10:23:27;;;;;;;;;;;6.00;99.90;;;;;;4984359;28;19918;-65
2022/01/20 10:26:02;;;;;;;;;;;6.10;99.90;;;;;;4980240;28;19920;-65
2022/01/20 10:28:27;;;;;;;;;;;6.00;99.90;;;;;;4979387;28;19918;-64
2022/01/20 10:30:55;;;;;;;;;;;6.10;99.90;;;;;;4981621;28;19932;-65
2022/01/20 10:33:21;;;;;;;;;;;6.10;99.90;;;;;;4981508;28;19992;-64
2022/01/20 10:35:46;;;;;;;;;;;6.20;99.90;;;;;;4982655;28;20438;-64
2022/01/20 10:38:17;;;;;;;;;;;6.20;99.90;;;;;;4983090;28;20545;-64
2022/01/20 10:40:50;;;;;;;;;;;6.20;99.90;;;;;;4981785;28;20386;-67
2022/01/20 10:43:23;;;;;;;;;;;6.30;99.90;;;;;;4980629;28;19953;-64
2022/01/20 10:45:49;;;;;;;;;;;6.30;99.90;;;;;;4980373;28;19984;-67
2022/01/20 10:48:18;;;;;;;;;;;6.40;99.90;;;;;;4980268;28;19914;-63
2022/01/20 10:50:44;;;;;;;;;;;6.40;99.90;;;;;;4982472;28;20336;-66
2022/01/20 10:53:19;;;;;;;;;;;6.40;99.90;;;;;;4980838;28;19992;-66
2022/01/20 10:55:44;;;;;;;;;;;6.40;99.90;;;;;;4982442;28;19914;-65
2022/01/20 10:58:10;;;;;;;;;;;6.40;99.90;;;;;;4980095;28;20228;-66
2022/01/20 11:00:40;;;;;;;;;;;6.40;99.90;;;;;;4981420;28;20306;-64
2022/01/20 11:03:06;;;;;;;;;;;6.40;99.90;;;;;;4983546;28;19921;-67
2022/01/20 11:05:33;;;;;;;;;;;6.40;99.90;;;;;;4982734;28;19914;-65
2022/01/20 11:08:00;;;;;;;;;;;6.50;99.90;;;;;;4981901;28;20231;-68
2022/01/20 11:10:25;;;;;;;;;;;6.50;99.90;;;;;;4979234;28;19914;-66
2022/01/20 11:12:51;;;;;;;;;;;6.50;99.90;;;;;;4981082;28;19975;-65
2022/01/20 11:15:18;;;;;;;;;;;6.60;99.90;;;;;;4980248;28;20005;-67
2022/01/20 11:17:49;;;;;;;;;;;6.50;99.90;;;;;;4983226;28;20446;-66
2022/01/20 11:20:17;;;;;;;;;;;6.50;99.90;;;;;;4982031;28;19922;-66
2022/01/20 11:22:50;;;;;;;;;;;6.50;99.90;;;;;;4979948;28;19918;-65
2022/01/20 11:25:19;;;;;;;;;;;6.50;99.90;;;;;;4986977;28;19914;-67
2022/01/20 11:27:44;;;;;;;;;;;6.60;99.90;;;;;;4980721;28;19914;-66
2022/01/20 11:30:26;;;;;;;;;;;6.60;99.90;;;;;;4985579;28;19921;-67
2022/01/20 11:33:05;;;;;;;;;;;6.50;99.90;;;;;;4981053;28;19925;-65
2022/01/20 11:35:40;;;;;;;;;;;6.50;99.90;;;;;;4981792;28;20006;-65
2022/01/20 11:38:05;;;;;;;;;;;6.60;99.90;;;;;;4980323;28;19921;-65
2022/01/20 11:40:31;;;;;;;;;;;6.70;99.90;;;;;;4980642;28;19918;-66
2022/01/20 11:43:02;;;;;;;;;;;6.80;99.90;;;;;;4981077;28;19922;-64
2022/01/20 11:45:32;;;;;;;;;;;6.90;99.90;;;;;;4981171;28;19913;-67
2022/01/20 11:47:58;;;;;;;;;;;7.00;99.90;;;;;;4979428;28;20268;-67
2022/01/20 11:50:24;;;;;;;;;;;7.00;99.90;;;;;;4981657;28;19914;-65
2022/01/20 11:52:50;;;;;;;;;;;7.10;99.90;;;;;;4980307;28;19961;-68
2022/01/20 11:55:17;;;;;;;;;;;7.10;99.90;;;;;;4984927;28;19922;-66
2022/01/20 11:57:42;;;;;;;;;;;7.10;99.90;;;;;;4980030;28;19920;-66
2022/01/20 12:00:20;;;;;;;;;;;7.00;99.90;;;;;;4981540;28;19926;-65
2022/01/20 12:02:46;;;;;;;;;;;6.90;99.90;;;;;;4984246;28;19953;-66
2022/01/20 12:05:29;;;;;;;;;;;6.90;99.90;;;;;;4984383;28;19942;-66
2022/01/20 12:08:12;;;;;;;;;;;7.00;99.90;;;;;;4982120;28;19964;-67
2022/01/20 12:10:39;;;;;;;;;;;7.10;99.90;;;;;;4978999;28;19972;-67
2022/01/20 12:13:05;;;;;;;;;;;7.20;99.90;;;;;;4979696;28;19921;-67
2022/01/20 12:15:31;;;;;;;;;;;7.10;99.90;;;;;;4980480;28;19949;-63
2022/01/20 12:17:58;;;;;;;;;;;7.10;99.90;;;;;;4979276;28;19980;-68
2022/01/20 12:20:24;;;;;;;;;;;7.20;99.90;;;;;;4980597;28;19914;-66
2022/01/20 12:22:51;;;;;;;;;;;7.20;99.90;;;;;;4980584;28;20383;-64
2022/01/20 12:25:25;;;;;;;;;;;7.30;99.90;;;;;;4985793;28;19918;-66
2022/01/20 12:27:51;;;;;;;;;;;7.20;99.90;;;;;;4979528;28;20004;-66
2022/01/20 12:30:24;;;;;;;;;;;7.20;99.90;;;;;;4979693;28;19981;-68
2022/01/20 12:33:00;;;;;;;;;;;7.10;99.90;;;;;;4982469;28;19965;-64
2022/01/20 12:35:33;;;;;;;;;;;6.90;99.90;;;;;;4979357;28;19997;-69
2022/01/20 12:37:59;;;;;;;;;;;6.70;99.90;;;;;;4995339;28;19918;-70
2022/01/20 12:40:24;;;;;;;;;;;6.70;99.90;;;;;;4977971;28;19918;-68
2022/01/20 12:42:50;;;;;;;;;;;6.70;99.90;;;;;;4983699;28;19914;-73
2022/01/20 12:48:14;;;;;;;;;;;6.80;99.90;;;;;;4982615;28;19924;-71
2022/01/20 12:50:49;;;;;;;;;;;6.80;99.90;;;;;;4982874;28;20331;-72
2022/01/20 12:53:17;;;;;;;;;;;6.80;99.90;;;;;;4981168;28;19921;-71
2022/01/20 12:55:49;;;;;;;;;;;6.90;99.90;;;;;;4980901;28;19919;-72
2022/01/20 12:58:15;;;;;;;;;;;7.00;99.90;;;;;;4979855;28;20379;-71
2022/01/20 13:00:40;;;;;;;;;;;7.00;99.90;;;;;;4985456;28;19921;-66
2022/01/20 13:03:06;;;;;;;;;;;7.00;99.90;;;;;;4985092;28;19921;-72
2022/01/20 13:05:33;;;;;;;;;;;7.00;99.90;;;;;;4984715;28;19915;-68
2022/01/20 13:08:00;;;;;;;;;;;7.00;99.90;;;;;;4983097;28;19922;-71
2022/01/20 13:10:34;;;;;;;;;;;6.90;99.90;;;;;;4984629;28;19957;-66
2022/01/20 13:13:05;;;;;;;;;;;6.80;99.90;;;;;;4987842;28;19914;-68
2022/01/20 13:15:31;;;;;;;;;;;6.90;99.90;;;;;;4989504;28;19914;-68
2022/01/20 13:18:08;;;;;;;;;;;7.10;99.90;;;;;;4987569;28;20012;-68
2022/01/20 13:20:40;;;;;;;;;;;7.10;99.90;;;;;;4988736;28;20366;-69
2022/01/20 13:23:54;;;;;;;;;;;7.20;99.90;;;;;;4986591;28;20457;-70
2022/01/20 13:26:04;;;;;;;;;;;7.10;99.90;;;;;;4981817;28;19960;-70
2022/01/20 13:28:29;;;;;;;;;;;6.90;99.90;;;;;;4986672;28;19929;-70
2022/01/20 13:30:55;;;;;;;;;;;6.90;99.90;;;;;;4982634;28;19922;-72
2022/01/20 13:33:22;;;;;;;;;;;7.00;99.90;;;;;;4984461;28;19922;-71
2022/01/20 13:35:51;;;;;;;;;;;7.00;99.90;;;;;;4983580;28;19930;-73
2022/01/20 13:38:17;;;;;;;;;;;6.90;99.90;;;;;;4983320;28;19989;-74
2022/01/20 13:40:45;;;;;;;;;;;6.70;99.90;;;;;;4983135;28;19926;-74
2022/01/20 13:45:39;;;;;;;;;;;6.80;99.90;;;;;;4982612;28;19949;-69
2022/01/20 13:48:05;;;;;;;;;;;6.90;99.90;;;;;;4984045;28;20382;-69
2022/01/20 13:50:35;;;;;;;;;;;7.00;99.90;;;;;;4982634;28;19914;-72
2022/01/20 13:53:12;;;;;;;;;;;6.90;99.90;;;;;;4984498;28;19920;-74
2022/01/20 13:55:38;;;;;;;;;;;7.00;99.90;;;;;;4989869;28;19918;-69
2022/01/20 13:58:04;;;;;;;;;;;6.90;99.90;;;;;;4986366;28;19960;-68
2022/01/20 14:00:30;;;;;;;;;;;6.80;99.90;;;;;;4987986;28;19925;-69
2022/01/20 14:02:56;;;;;;;;;;;6.90;99.90;;;;;;4985298;28;20345;-70
2022/01/20 14:05:26;;;;;;;;;;;6.90;99.90;;;;;;4984654;28;20406;-68
2022/01/20 14:07:51;;;;;;;;;;;6.90;99.90;;;;;;4984486;28;20366;-66
2022/01/20 14:10:17;;;;;;;;;;;6.80;99.90;;;;;;4982606;28;19949;-70
2022/01/20 14:12:42;;;;;;;;;;;6.70;99.90;;;;;;4981235;28;19961;-69
2022/01/20 14:15:08;;;;;;;;;;;6.80;99.90;;;;;;4982196;28;19941;-67
2022/01/20 14:17:37;;;;;;;;;;;6.80;99.90;;;;;;4983352;28;19914;-69
2022/01/20 14:20:07;;;;;;;;;;;6.90;99.90;;;;;;4984260;28;20029;-70
2022/01/20 14:22:33;;;;;;;;;;;6.90;99.90;;;;;;4984048;28;19976;-70
2022/01/20 14:24:58;;;;;;;;;;;7.00;99.90;;;;;;4986677;28;19921;-67
2022/01/20 14:27:24;;;;;;;;;;;7.10;99.90;;;;;;4981307;28;19988;-67
2022/01/20 14:29:49;;;;;;;;;;;7.20;99.90;;;;;;4984233;28;19972;-68
2022/01/20 14:32:15;;;;;;;;;;;7.20;99.90;;;;;;4983033;28;19921;-68
2022/01/20 14:34:41;;;;;;;;;;;7.20;99.90;;;;;;4981653;28;20326;-70
2022/01/20 14:37:07;;;;;;;;;;;7.20;99.90;;;;;;4982337;28;19944;-70
2022/01/20 14:39:33;;;;;;;;;;;7.10;99.90;;;;;;4985545;28;19977;-70
2022/01/20 14:41:59;;;;;;;;;;;7.00;99.90;;;;;;4980102;28;19922;-69
2022/01/20 14:44:24;;;;;;;;;;;7.10;99.90;;;;;;4982385;28;19914;-68
2022/01/20 14:46:50;;;;;;;;;;;7.10;99.90;;;;;;4981456;28;20283;-68
2022/01/20 14:49:16;;;;;;;;;;;7.10;99.90;;;;;;4980961;28;19914;-68
2022/01/20 14:51:41;;;;;;;;;;;7.10;99.90;;;;;;4980256;28;20647;-70
2022/01/20 14:54:07;;;;;;;;;;;7.10;99.90;;;;;;4985366;28;19914;-72
2022/01/20 14:56:32;;;;;;;;;;;6.90;99.90;;;;;;4999523;28;19925;-69
2022/01/20 14:58:58;;;;;;;;;;;6.90;99.90;;;;;;4984113;28;19984;-69
2022/01/20 15:01:23;;;;;;;;;;;6.90;99.90;;;;;;4979465;28;19921;-69
2022/01/20 15:03:49;;;;;;;;;;;6.90;99.90;;;;;;4982619;28;19918;-69
2022/01/20 15:06:15;;;;;;;;;;;7.00;99.90;;;;;;4981766;28;19918;-70
2022/01/20 15:08:40;;;;;;;;;;;7.00;99.90;;;;;;4997177;28;19925;-72
2022/01/20 15:11:06;;;;;;;;;;;7.00;99.90;;;;;;4986606;28;20385;-70
2022/01/20 15:13:31;;;;;;;;;;;7.10;99.90;;;;;;4979568;28;19920;-71
2022/01/20 15:15:57;;;;;;;;;;;7.00;99.90;;;;;;4982106;28;19928;-69
2022/01/20 15:18:23;;;;;;;;;;;7.00;99.90;;;;;;4981207;28;20357;-70
2022/01/20 15:20:48;;;;;;;;;;;6.70;99.90;;;;;;4984530;28;19914;-68
2022/01/20 15:23:14;;;;;;;;;;;6.60;99.90;;;;;;4984391;28;19918;-68
2022/01/20 15:25:39;;;;;;;;;;;6.60;99.90;;;;;;4979115;28;19984;-70
2022/01/20 15:28:05;;;;;;;;;;;6.60;99.90;;;;;;4977135;28;19936;-66
2022/01/20 15:30:31;;;;;;;;;;;6.70;99.90;;;;;;4980558;28;19918;-70
2022/01/20 15:32:56;;;;;;;;;;;6.80;99.90;;;;;;4979985;28;19922;-71
2022/01/20 15:35:23;;;;;;;;;;;6.90;99.90;;;;;;4983097;28;19960;-69
2022/01/20 15:37:49;;;;;;;;;;;6.80;99.90;;;;;;4979040;28;19918;-68